createdAt,value
2019-05-07T00:01:42.302Z,119.00
2019-05-07T00:04:47.473Z,119.00
2019-05-07T00:07:52.617Z,119.00
2019-05-07T00:10:57.861Z,119.00
2019-05-07T00:14:03.235Z,119.00
2019-05-07T00:17:08.492Z,119.00
2019-05-07T00:20:13.643Z,119.00
2019-05-07T00:23:18.793Z,119.00
2019-05-07T00:26:24.028Z,119.00
2019-05-07T00:29:29.278Z,119.00
2019-05-07T00:32:34.401Z,119.00
2019-05-07T00:35:46.282Z,119.00
2019-05-07T00:38:55.935Z,119.00
2019-05-07T00:42:16.670Z,119.00
2019-05-07T00:45:28.168Z,119.00
2019-05-07T00:48:33.412Z,119.00
2019-05-07T00:51:38.579Z,119.00
2019-05-07T00:54:43.712Z,119.00
2019-05-07T00:57:48.872Z,119.00
2019-05-07T01:00:54.048Z,119.00
2019-05-07T01:03:59.242Z,119.00
2019-05-07T01:07:04.360Z,119.00
2019-05-07T01:10:12.586Z,119.00
2019-05-07T01:13:17.291Z,119.00
2019-05-07T01:16:22.605Z,119.00
2019-05-07T01:19:27.757Z,119.00
2019-05-07T01:22:34.475Z,119.00
2019-05-07T01:25:43.013Z,119.00
2019-05-07T01:29:02.887Z,119.00
2019-05-07T01:32:18.481Z,119.00
2019-05-07T01:35:42.580Z,119.00
2019-05-07T01:38:47.676Z,119.00
2019-05-07T01:41:52.931Z,119.00
2019-05-07T01:44:58.059Z,119.00
2019-05-07T01:48:04.418Z,119.00
2019-05-07T01:51:09.682Z,119.00
2019-05-07T01:54:14.844Z,119.00
2019-05-07T01:57:19.932Z,119.00
2019-05-07T02:00:25.162Z,119.00
2019-05-07T02:03:45.176Z,119.00
2019-05-07T02:07:08.087Z,119.00
2019-05-07T02:10:32.114Z,119.00
2019-05-07T02:13:37.442Z,119.00
2019-05-07T02:16:42.608Z,119.00
2019-05-07T02:19:47.708Z,119.00
2019-05-07T02:22:53.342Z,119.00
2019-05-07T02:25:58.636Z,119.00
2019-05-07T02:29:04.873Z,119.00
2019-05-07T02:32:12.938Z,119.00
2019-05-07T02:35:16.907Z,119.00
2019-05-07T02:38:29.883Z,119.00
2019-05-07T02:41:35.718Z,119.00
2019-05-07T02:44:58.424Z,119.00
2019-05-07T02:48:03.690Z,119.00
2019-05-07T02:51:18.847Z,119.00
2019-05-07T02:54:32.864Z,119.00
2019-05-07T02:57:38.277Z,119.00
2019-05-07T03:00:43.630Z,119.00
2019-05-07T03:03:48.916Z,119.00
2019-05-07T03:06:54.450Z,119.00
2019-05-07T03:10:03.204Z,119.00
2019-05-07T03:13:07.110Z,119.00
2019-05-07T03:16:13.057Z,119.00
2019-05-07T03:19:18.617Z,119.00
2019-05-07T03:22:23.799Z,119.00
2019-05-07T03:25:34.077Z,119.00
2019-05-07T03:28:58.057Z,119.00
2019-05-07T03:32:28.648Z,119.00
2019-05-07T03:35:45.916Z,119.00
2019-05-07T03:38:47.997Z,119.00
2019-05-07T03:41:53.315Z,119.00
2019-05-07T03:45:13.703Z,119.00
2019-05-07T03:48:20.199Z,119.00
2019-05-07T03:51:25.398Z,119.00
2019-05-07T03:54:33.758Z,119.00
2019-05-07T03:57:37.386Z,119.00
2019-05-07T04:00:44.191Z,119.00
2019-05-07T04:03:49.411Z,119.00
2019-05-07T04:06:54.678Z,119.00
2019-05-07T04:09:59.869Z,119.00
2019-05-07T04:13:06.540Z,119.00
2019-05-07T04:16:13.505Z,119.00
2019-05-07T04:19:18.543Z,119.00
2019-05-07T04:22:28.629Z,114.93
2019-05-07T04:25:48.467Z,111.00
2019-05-07T04:29:06.132Z,108.30
2019-05-07T04:32:14.356Z,103.81
2019-05-07T04:35:35.286Z,99.30
2019-05-07T04:38:40.482Z,93.45
2019-05-07T04:41:46.700Z,96.63
2019-05-07T04:44:53.958Z,90.21
2019-05-07T04:47:58.839Z,87.91
2019-05-07T04:51:05.709Z,85.42
2019-05-07T04:54:13.232Z,83.93
2019-05-07T04:57:28.205Z,82.67
2019-05-07T05:00:33.779Z,80.29
2019-05-07T05:03:43.430Z,79.67
2019-05-07T05:06:48.748Z,75.48
2019-05-07T05:09:53.927Z,80.08
2019-05-07T05:12:59.143Z,71.30
2019-05-07T05:16:23.717Z,74.97
2019-05-07T05:19:28.854Z,71.81
2019-05-07T05:22:53.763Z,69.91
2019-05-07T05:25:58.983Z,69.32
2019-05-07T05:29:04.318Z,67.70
2019-05-07T05:32:11.890Z,71.69
2019-05-07T05:35:17.317Z,67.51
2019-05-07T05:38:25.492Z,65.73
2019-05-07T05:41:34.152Z,65.74
2019-05-07T05:44:41.748Z,66.13
2019-05-07T05:48:01.106Z,65.83
2019-05-07T05:51:19.079Z,63.25
2019-05-07T05:54:32.029Z,64.96
2019-05-07T05:57:53.485Z,64.32
2019-05-07T06:01:17.616Z,63.68
2019-05-07T06:04:35.734Z,64.32
2019-05-07T06:07:46.618Z,63.22
2019-05-07T06:11:04.901Z,61.36
2019-05-07T06:14:14.948Z,59.53
2019-05-07T06:17:39.036Z,61.62
2019-05-07T06:20:57.299Z,57.34
2019-05-07T06:24:04.352Z,61.23
2019-05-07T06:27:09.547Z,62.00
2019-05-07T06:30:14.897Z,53.34
2019-05-07T06:33:20.064Z,59.24
2019-05-07T06:36:25.270Z,67.13
2019-05-07T06:39:36.859Z,62.84
2019-05-07T06:43:03.143Z,61.11
2019-05-07T06:46:12.662Z,60.63
2019-05-07T06:49:17.395Z,67.03
2019-05-07T06:52:22.850Z,70.85
2019-05-07T06:55:32.354Z,68.74
2019-05-07T06:58:49.257Z,70.86
2019-05-07T07:02:22.867Z,72.50
2019-05-07T07:05:45.811Z,79.32
2019-05-07T07:08:56.842Z,78.11
2019-05-07T07:12:03.866Z,71.04
2019-05-07T07:15:09.292Z,78.69
2019-05-07T07:18:14.598Z,77.81
2019-05-07T07:21:21.982Z,82.37
2019-05-07T07:24:30.284Z,80.38
2019-05-07T07:27:35.424Z,82.20
2019-05-07T07:30:48.429Z,82.48
2019-05-07T07:33:54.183Z,74.23
2019-05-07T07:37:15.186Z,79.46
2019-05-07T07:40:32.777Z,77.25
2019-05-07T07:43:37.999Z,78.68
2019-05-07T07:46:43.140Z,79.83
2019-05-07T07:49:48.268Z,77.53
2019-05-07T07:52:53.424Z,77.64
2019-05-07T07:56:16.177Z,76.52
2019-05-07T07:59:46.365Z,78.41
2019-05-07T08:02:56.169Z,81.81
2019-05-07T08:06:02.192Z,73.41
2019-05-07T08:09:09.039Z,79.38
2019-05-07T08:12:14.217Z,74.14
2019-05-07T08:15:21.835Z,71.92
2019-05-07T08:18:27.482Z,77.16
2019-05-07T08:21:33.268Z,73.91
2019-05-07T08:24:38.479Z,69.89
2019-05-07T08:27:43.634Z,69.31
2019-05-07T08:30:59.546Z,70.81
2019-05-07T08:34:14.229Z,80.09
2019-05-07T08:37:24.329Z,66.58
2019-05-07T08:40:27.708Z,68.58
2019-05-07T08:43:32.967Z,67.25
2019-05-07T08:46:57.139Z,71.18
2019-05-07T08:50:02.877Z,64.95
2019-05-07T08:53:09.279Z,66.15
2019-05-07T08:56:14.513Z,70.23
2019-05-07T08:59:19.765Z,62.37
2019-05-07T09:02:24.879Z,63.49
2019-05-07T09:05:32.194Z,67.18
2019-05-07T09:08:36.908Z,62.14
2019-05-07T09:11:42.667Z,63.77
2019-05-07T09:14:52.915Z,64.25
2019-05-07T09:17:58.343Z,57.63
2019-05-07T09:21:03.600Z,58.79
2019-05-07T09:24:09.147Z,62.22
2019-05-07T09:27:32.723Z,55.67
2019-05-07T09:30:56.612Z,61.47
2019-05-07T09:34:02.645Z,55.04
2019-05-07T09:37:09.562Z,52.88
2019-05-07T09:40:14.956Z,50.69
2019-05-07T09:43:21.892Z,49.73
2019-05-07T09:46:27.550Z,53.86
2019-05-07T09:49:32.778Z,54.19
2019-05-07T09:52:38.123Z,54.23
2019-05-07T09:55:44.944Z,52.85
2019-05-07T09:58:53.047Z,49.42
2019-05-07T10:01:58.503Z,51.33
2019-05-07T10:05:03.803Z,49.99
2019-05-07T10:08:09.226Z,51.80
2019-05-07T10:11:19.578Z,52.10
2019-05-07T10:14:24.925Z,51.13
2019-05-07T10:17:51.763Z,48.49
2019-05-07T10:20:57.039Z,51.24
2019-05-07T10:24:02.497Z,52.96
2019-05-07T10:27:07.848Z,54.26
2019-05-07T10:30:13.269Z,51.58
2019-05-07T10:33:20.027Z,53.62
2019-05-07T10:36:27.502Z,55.63
2019-05-07T10:39:32.958Z,49.97
2019-05-07T10:42:38.210Z,48.96
2019-05-07T10:46:02.386Z,50.08
2019-05-07T10:49:25.846Z,51.24
2019-05-07T10:52:31.842Z,53.58
2019-05-07T10:55:37.227Z,53.60
2019-05-07T10:58:42.378Z,53.47
2019-05-07T11:02:18.834Z,53.64
2019-05-07T11:05:23.989Z,54.03
2019-05-07T11:08:36.039Z,55.02
2019-05-07T11:11:36.265Z,52.93
2019-05-07T11:14:41.538Z,53.09
2019-05-07T11:18:08.328Z,51.13
2019-05-07T11:21:13.902Z,55.60
2019-05-07T11:24:19.019Z,56.44
2019-05-07T11:27:24.288Z,53.92
2019-05-07T11:30:29.483Z,52.67
2019-05-07T11:33:34.601Z,52.88
2019-05-07T11:36:39.739Z,49.25
2019-05-07T11:39:44.910Z,48.69
2019-05-07T11:43:02.649Z,49.77
2019-05-07T11:46:35.733Z,50.13
2019-05-07T11:49:58.629Z,51.93
2019-05-07T11:53:06.610Z,57.36
2019-05-07T11:56:11.817Z,50.42
2019-05-07T11:59:17.009Z,47.67
2019-05-07T12:02:22.722Z,47.52
2019-05-07T12:05:27.962Z,52.01
2019-05-07T12:08:42.874Z,51.45
2019-05-07T12:11:40.011Z,50.22
2019-05-07T12:14:45.196Z,51.16
2019-05-07T12:17:52.141Z,53.35
2019-05-07T12:21:06.693Z,51.53
2019-05-07T12:24:09.123Z,51.52
2019-05-07T12:27:14.305Z,53.24
2019-05-07T12:30:38.060Z,51.06
2019-05-07T12:33:53.857Z,49.79
2019-05-07T12:37:01.707Z,49.77
2019-05-07T12:40:26.477Z,49.96
2019-05-07T12:43:35.024Z,51.32
2019-05-07T12:46:42.118Z,51.67
2019-05-07T12:49:46.993Z,50.05
2019-05-07T12:53:14.193Z,51.42
2019-05-07T12:56:19.359Z,49.75
2019-05-07T12:59:24.496Z,51.37
2019-05-07T13:02:44.102Z,48.62
2019-05-07T13:05:47.815Z,49.24
2019-05-07T13:08:53.009Z,50.19
2019-05-07T13:11:58.150Z,51.77
2019-05-07T13:15:03.350Z,51.35
2019-05-07T13:18:08.714Z,51.38
2019-05-07T13:21:13.984Z,48.29
2019-05-07T13:24:19.243Z,53.25
2019-05-07T13:27:24.419Z,51.44
2019-05-07T13:30:29.618Z,51.22
2019-05-07T13:33:35.341Z,50.03
2019-05-07T13:36:43.773Z,50.58
2019-05-07T13:40:08.063Z,48.62
2019-05-07T13:43:20.244Z,48.83
2019-05-07T13:46:25.580Z,48.49
2019-05-07T13:49:32.318Z,48.42
2019-05-07T13:52:37.732Z,49.81
2019-05-07T13:55:43.027Z,50.15
2019-05-07T13:58:48.195Z,48.00
2019-05-07T14:02:06.664Z,49.05
2019-05-07T14:05:13.989Z,46.94
2019-05-07T14:08:19.740Z,45.43
2019-05-07T14:11:26.609Z,46.43
2019-05-07T14:14:34.512Z,46.33
2019-05-07T14:17:39.177Z,46.09
2019-05-07T14:20:51.230Z,46.18
2019-05-07T14:23:58.077Z,48.09
2019-05-07T14:27:03.220Z,49.43
2019-05-07T14:30:08.766Z,47.17
2019-05-07T14:33:19.242Z,47.97
2019-05-07T14:36:29.199Z,47.95
2019-05-07T14:39:34.379Z,47.94
2019-05-07T14:42:44.824Z,46.25
2019-05-07T14:45:52.230Z,44.14
2019-05-07T14:48:57.711Z,47.59
2019-05-07T14:52:02.923Z,48.49
2019-05-07T14:55:08.299Z,46.41
2019-05-07T14:58:23.013Z,46.71
2019-05-07T15:01:34.057Z,46.06
2019-05-07T15:04:41.978Z,47.68
2019-05-07T15:07:47.230Z,47.05
2019-05-07T15:10:52.603Z,45.11
2019-05-07T15:13:57.924Z,47.90
2019-05-07T15:17:12.847Z,46.32
2019-05-07T15:20:18.383Z,46.88
2019-05-07T15:26:42.408Z,46.58
2019-05-07T15:29:47.554Z,44.62
2019-05-07T15:32:52.696Z,47.49
2019-05-07T15:35:57.831Z,47.37
2019-05-07T15:39:03.000Z,47.58
2019-05-07T15:42:09.927Z,52.00
2019-05-07T15:45:15.227Z,46.77
2019-05-07T15:48:22.006Z,48.94
2019-05-07T15:51:27.540Z,54.05
2019-05-07T15:54:32.780Z,50.73
2019-05-07T15:57:38.662Z,50.16
2019-05-07T16:00:44.176Z,49.81
2019-05-07T16:03:54.366Z,49.55
2019-05-07T16:06:58.030Z,47.48
2019-05-07T16:10:03.274Z,45.91
2019-05-07T16:13:11.858Z,44.52
2019-05-07T16:16:17.219Z,51.12
2019-05-07T16:19:26.979Z,47.10
2019-05-07T16:22:36.195Z,47.23
2019-05-07T16:25:42.237Z,48.63
2019-05-07T16:28:47.844Z,47.61
2019-05-07T16:31:54.056Z,50.71
2019-05-07T16:34:59.215Z,51.19
2019-05-07T16:38:04.516Z,52.93
2019-05-07T16:41:13.341Z,54.01
2019-05-07T16:44:16.535Z,54.04
2019-05-07T16:47:22.813Z,53.96
2019-05-07T16:50:28.175Z,55.43
2019-05-07T16:53:35.286Z,55.61
2019-05-07T16:56:59.738Z,61.88
2019-05-07T17:00:08.433Z,56.92
2019-05-07T17:03:17.687Z,57.57
2019-05-07T17:06:25.238Z,60.50
2019-05-07T17:09:31.516Z,61.30
2019-05-07T17:12:38.264Z,62.71
2019-05-07T17:15:56.896Z,63.14
2019-05-07T17:19:02.651Z,64.65
2019-05-07T17:22:08.056Z,62.31
2019-05-07T17:25:33.268Z,63.68
2019-05-07T17:28:37.955Z,63.12
2019-05-07T17:31:43.160Z,63.02
2019-05-07T17:34:48.456Z,64.22
2019-05-07T17:38:08.922Z,64.95
2019-05-07T17:41:13.058Z,66.83
2019-05-07T17:44:15.085Z,75.61
2019-05-07T17:47:21.841Z,82.82
2019-05-07T17:50:33.385Z,78.61
2019-05-07T17:53:38.600Z,72.91
2019-05-07T17:56:43.914Z,66.80
2019-05-07T17:59:49.225Z,69.22
2019-05-07T18:03:32.482Z,75.78
2019-05-07T18:06:38.569Z,82.89
2019-05-07T18:09:44.864Z,80.11
2019-05-07T18:12:53.302Z,80.39
2019-05-07T18:16:02.766Z,80.07
2019-05-07T18:19:07.637Z,78.40
2019-05-07T18:22:12.907Z,82.99
2019-05-07T18:25:18.149Z,86.37
2019-05-07T18:28:27.821Z,87.83
2019-05-07T18:31:54.938Z,88.92
2019-05-07T18:35:02.203Z,83.36
2019-05-07T18:38:06.999Z,84.99
2019-05-07T18:41:12.395Z,86.16
2019-05-07T18:44:19.020Z,86.78
2019-05-07T18:47:24.150Z,89.56
2019-05-07T18:50:29.331Z,90.27
2019-05-07T18:53:34.599Z,91.80
2019-05-07T18:56:41.897Z,93.19
2019-05-07T18:59:46.757Z,93.56
2019-05-07T19:02:52.355Z,95.12
2019-05-07T19:05:58.461Z,94.99
2019-05-07T19:09:05.116Z,95.87
2019-05-07T19:12:13.216Z,94.78
2019-05-07T19:15:18.865Z,95.25
2019-05-07T19:18:24.154Z,96.18
2019-05-07T19:21:31.837Z,91.82
2019-05-07T19:24:45.238Z,95.25
2019-05-07T19:27:43.606Z,95.89
2019-05-07T19:30:52.836Z,96.22
2019-05-07T19:33:58.331Z,94.83
2019-05-07T19:37:03.462Z,95.35
2019-05-07T19:40:09.025Z,96.12
2019-05-07T19:43:14.317Z,97.42
2019-05-07T19:46:19.624Z,97.15
2019-05-07T19:49:25.876Z,96.46
2019-05-07T19:52:33.085Z,97.50
2019-05-07T19:55:55.900Z,99.66
2019-05-07T19:59:01.128Z,95.12
2019-05-07T20:02:08.253Z,95.95
2019-05-07T20:05:14.510Z,95.80
2019-05-07T20:08:21.450Z,95.54
2019-05-07T20:11:56.151Z,99.04
2019-05-07T20:15:02.789Z,99.33
2019-05-07T20:18:08.339Z,99.09
2019-05-07T20:21:13.609Z,100.78
2019-05-07T20:24:18.845Z,98.53
2019-05-07T20:27:24.116Z,95.80
2019-05-07T20:30:29.347Z,96.49
2019-05-07T20:33:34.510Z,96.29
2019-05-07T20:36:39.672Z,97.34
2019-05-07T20:39:44.815Z,98.15
2019-05-07T20:42:52.358Z,97.98
2019-05-07T20:45:56.868Z,100.09
2019-05-07T20:49:02.913Z,99.29
2019-05-07T20:52:08.576Z,101.76
2019-05-07T20:55:31.507Z,99.34
2019-05-07T20:58:36.967Z,100.75
2019-05-07T21:01:42.239Z,100.17
2019-05-07T21:04:47.461Z,101.88
2019-05-07T21:07:52.645Z,100.56
2019-05-07T21:10:57.917Z,100.78
2019-05-07T21:14:03.359Z,102.60
2019-05-07T21:17:08.634Z,101.70
2019-05-07T21:20:13.806Z,97.86
2019-05-07T21:23:18.951Z,97.57
2019-05-07T21:26:24.115Z,99.30
2019-05-07T21:29:29.250Z,101.49
2019-05-07T21:32:34.421Z,103.04
2019-05-07T21:35:39.654Z,100.10
2019-05-07T21:38:44.851Z,102.26
2019-05-07T21:41:51.944Z,104.00
2019-05-07T21:44:56.869Z,104.54
2019-05-07T21:48:02.564Z,104.53
2019-05-07T21:51:07.790Z,103.91
2019-05-07T21:54:23.717Z,105.26
2019-05-07T21:57:47.887Z,105.57
2019-05-07T22:01:08.434Z,107.08
2019-05-07T22:04:15.369Z,107.38
2019-05-07T22:07:22.573Z,108.47
2019-05-07T22:10:27.419Z,108.70
2019-05-07T22:13:33.004Z,108.28
2019-05-07T22:16:38.429Z,108.69
2019-05-07T22:19:43.562Z,108.05
2019-05-07T22:22:48.683Z,107.99
2019-05-07T22:25:53.794Z,107.00
2019-05-07T22:29:02.896Z,107.19
2019-05-07T22:32:29.584Z,108.25
2019-05-07T22:35:39.389Z,108.70
2019-05-07T22:39:05.296Z,109.28
2019-05-07T22:42:12.139Z,109.45
2019-05-07T22:45:17.703Z,107.65
2019-05-07T22:48:23.016Z,106.45
2019-05-07T22:51:28.179Z,106.93
2019-05-07T22:54:33.308Z,105.56
2019-05-07T22:57:44.328Z,106.16
2019-05-07T23:00:54.069Z,105.66
2019-05-07T23:03:59.254Z,106.99
2019-05-07T23:07:04.395Z,108.41
2019-05-07T23:10:11.929Z,108.67
2019-05-07T23:13:17.371Z,107.83
2019-05-07T23:16:23.173Z,106.92
2019-05-07T23:19:28.508Z,107.21
2019-05-07T23:22:33.661Z,106.57
2019-05-07T23:25:38.826Z,106.74
2019-05-07T23:28:43.959Z,104.91
2019-05-07T23:31:49.124Z,106.09
2019-05-07T23:34:54.314Z,102.61
2019-05-07T23:37:59.520Z,103.63
2019-05-07T23:41:22.272Z,104.92
2019-05-07T23:44:27.696Z,103.44
2019-05-07T23:47:32.792Z,104.31
2019-05-07T23:50:37.919Z,104.36
2019-05-07T23:53:44.392Z,106.77
2019-05-07T23:57:02.862Z,107.67
2019-05-07T23:59:56.508Z,106.27
